Mershon, Georgia
Current Conditions -  °F | °C
As of 2:10 AM on Saturday 25 Oct 2014 (Local Time) from KAMG Reporting Station
Haze Haze  
Wind Chill: 46°   Ceiling: Unl
Heat Index: 46°   Visibility: 1mi
Dew Point: 45°   Wind: 0mph
Humidity: 96%   Direction: NA
Pressure: 30.01"   Gusts: NA
Location:  31.46°N, 82.26°W
Report Text: KAMG 250610Z AUTO 00000KT 1SM BR CLR 08/07 A3001 RMK AO2 T00780072
Loading
Personal Weather Stations






























Interactive Weather Map
Tropical Storm Tracking
New forecast layout! Learn more

10-Day Weather Forecast

Advertisements
Track Severe Weather on mobile